createdAt,value
2017-12-21T00:02:07.891Z,14.05
2017-12-21T00:04:35.411Z,14.87
2017-12-21T00:07:03.756Z,15.25
2017-12-21T00:09:31.263Z,14.40
2017-12-21T00:11:58.767Z,15.15
2017-12-21T00:14:26.279Z,13.95
2017-12-21T00:16:54.545Z,15.82
2017-12-21T00:19:22.839Z,16.12
2017-12-21T00:21:50.349Z,16.12
2017-12-21T00:24:17.862Z,14.95
2017-12-21T00:26:45.372Z,14.90
2017-12-21T00:29:12.900Z,17.25
2017-12-21T00:31:40.402Z,15.25
2017-12-21T00:34:08.694Z,14.77
2017-12-21T00:36:36.961Z,14.32
2017-12-21T00:39:05.242Z,15.18
2017-12-21T00:41:33.515Z,15.50
2017-12-21T00:44:01.795Z,14.87
2017-12-21T00:46:30.070Z,15.75
2017-12-21T00:48:58.351Z,15.05
2017-12-21T00:51:26.675Z,15.20
2017-12-21T00:53:54.193Z,15.90
2017-12-21T00:56:22.490Z,14.57
2017-12-21T00:58:50.009Z,14.43
2017-12-21T01:01:18.292Z,16.17
2017-12-21T01:03:45.852Z,16.02
2017-12-21T01:06:13.357Z,14.98
2017-12-21T01:08:40.910Z,14.55
2017-12-21T01:11:08.420Z,13.65
2017-12-21T01:13:35.926Z,13.20
2017-12-21T01:16:03.447Z,13.00
2017-12-21T01:18:30.952Z,12.20
2017-12-21T01:20:58.471Z,11.20
2017-12-21T01:23:26.750Z,12.15
2017-12-21T01:25:54.278Z,10.50
2017-12-21T01:28:21.790Z,12.32
2017-12-21T01:30:49.299Z,13.05
2017-12-21T01:33:16.799Z,13.35
2017-12-21T01:35:45.083Z,11.90
2017-12-21T01:38:12.651Z,13.40
2017-12-21T01:40:40.134Z,11.75
2017-12-21T01:43:07.634Z,12.02
2017-12-21T01:45:35.171Z,12.45
2017-12-21T01:48:02.674Z,12.77
2017-12-21T01:50:30.954Z,13.38
2017-12-21T01:52:58.451Z,13.15
2017-12-21T01:55:25.974Z,12.35
2017-12-21T01:57:53.470Z,13.43
2017-12-21T02:00:20.982Z,13.68
2017-12-21T02:02:49.253Z,12.68
2017-12-21T02:05:17.551Z,14.35
2017-12-21T02:07:45.062Z,14.40
2017-12-21T02:10:12.566Z,14.55
2017-12-21T02:12:40.086Z,14.10
2017-12-21T02:15:07.586Z,13.35
2017-12-21T02:17:35.102Z,14.43
2017-12-21T02:20:02.606Z,14.90
2017-12-21T02:22:30.126Z,13.65
2017-12-21T02:24:57.622Z,14.00
2017-12-21T02:27:25.144Z,15.25
2017-12-21T02:29:52.642Z,14.05
2017-12-21T02:32:20.167Z,14.25
2017-12-21T02:34:47.662Z,14.25
2017-12-21T02:37:15.185Z,14.30
2017-12-21T02:39:42.684Z,15.05
2017-12-21T02:42:10.202Z,15.95
2017-12-21T02:44:37.705Z,16.30
2017-12-21T02:47:05.228Z,16.90
2017-12-21T02:49:33.498Z,15.60
2017-12-21T02:52:01.023Z,16.45
2017-12-21T02:54:28.530Z,15.70
2017-12-21T02:56:56.813Z,15.45
2017-12-21T02:59:24.310Z,16.50
2017-12-21T03:01:51.861Z,16.30
2017-12-21T03:04:19.375Z,15.57
2017-12-21T03:06:47.650Z,16.20
2017-12-21T03:09:15.939Z,16.85
2017-12-21T03:11:44.206Z,14.30
2017-12-21T03:14:12.489Z,14.20
2017-12-21T03:16:40.764Z,15.18
2017-12-21T03:19:09.051Z,16.33
2017-12-21T03:21:36.547Z,15.82
2017-12-21T03:24:04.066Z,15.60
2017-12-21T03:26:31.566Z,14.90
2017-12-21T03:28:59.083Z,14.50
2017-12-21T03:31:27.355Z,15.05
2017-12-21T03:33:55.643Z,14.65
2017-12-21T03:36:23.141Z,15.25
2017-12-21T03:38:50.653Z,14.13
2017-12-21T03:41:18.922Z,14.27
2017-12-21T03:43:47.207Z,13.35
2017-12-21T03:46:15.471Z,14.00
2017-12-21T03:48:43.762Z,15.23
2017-12-21T03:51:12.039Z,12.50
2017-12-21T03:53:40.324Z,13.85
2017-12-21T03:56:07.826Z,13.32
2017-12-21T03:58:35.371Z,15.27
2017-12-21T04:01:02.871Z,13.15
2017-12-21T04:03:30.370Z,13.82
2017-12-21T04:05:57.890Z,14.10
2017-12-21T04:08:25.389Z,13.23
2017-12-21T04:10:52.914Z,13.25
2017-12-21T04:13:20.427Z,14.50
2017-12-21T04:15:47.942Z,14.07
2017-12-21T04:18:16.214Z,13.57
2017-12-21T04:20:44.493Z,14.45
2017-12-21T04:23:12.755Z,13.95
2017-12-21T04:25:40.291Z,14.63
2017-12-21T04:28:07.789Z,13.90
2017-12-21T04:30:36.065Z,13.93
2017-12-21T04:33:04.335Z,15.27
2017-12-21T04:35:32.656Z,14.65
2017-12-21T04:38:00.147Z,14.23
2017-12-21T04:40:27.690Z,13.82
2017-12-21T04:42:55.266Z,13.40
2017-12-21T04:45:22.798Z,15.02
2017-12-21T04:47:50.306Z,14.60
2017-12-21T04:50:17.842Z,12.95
2017-12-21T04:52:45.355Z,13.13
2017-12-21T04:55:12.887Z,15.07
2017-12-21T04:57:41.174Z,14.07
2017-12-21T05:00:09.462Z,13.65
2017-12-21T05:02:37.736Z,14.40
2017-12-21T05:05:05.287Z,15.82
2017-12-21T05:07:33.557Z,14.52
2017-12-21T05:10:01.836Z,14.10
2017-12-21T05:12:30.140Z,14.30
2017-12-21T05:14:57.643Z,13.95
2017-12-21T05:17:25.161Z,13.57
2017-12-21T05:19:52.677Z,14.93
2017-12-21T05:22:20.190Z,14.90
2017-12-21T05:24:47.706Z,15.07
2017-12-21T05:27:16.225Z,12.95
2017-12-21T05:29:43.756Z,14.25
2017-12-21T05:32:11.282Z,12.70
2017-12-21T05:34:38.794Z,14.43
2017-12-21T05:37:06.314Z,13.95
2017-12-21T05:39:33.814Z,14.77
2017-12-21T05:42:01.355Z,12.52
2017-12-21T05:44:29.634Z,14.43
2017-12-21T05:46:57.915Z,13.00
2017-12-21T05:49:25.414Z,13.98
2017-12-21T05:51:52.927Z,13.48
2017-12-21T05:54:21.199Z,13.05
2017-12-21T05:56:49.531Z,14.25
2017-12-21T05:59:18.046Z,14.70
2017-12-21T06:01:45.550Z,12.82
2017-12-21T06:04:13.067Z,13.18
2017-12-21T06:06:41.343Z,14.40
2017-12-21T06:09:08.866Z,13.65
2017-12-21T06:11:36.366Z,14.15
2017-12-21T06:14:04.644Z,12.98
2017-12-21T06:16:32.929Z,13.18
2017-12-21T06:19:00.455Z,14.18
2017-12-21T06:21:27.954Z,12.63
2017-12-21T06:23:55.486Z,13.90
2017-12-21T06:26:23.003Z,13.50
2017-12-21T06:28:50.519Z,13.40
2017-12-21T06:31:18.870Z,12.48
2017-12-21T06:33:46.383Z,12.52
2017-12-21T06:36:13.882Z,13.50
2017-12-21T06:38:41.398Z,11.15
2017-12-21T06:41:08.903Z,12.00
2017-12-21T06:43:36.413Z,12.07
2017-12-21T06:46:03.918Z,13.60
2017-12-21T06:48:31.447Z,11.07
2017-12-21T06:50:58.942Z,10.75
2017-12-21T06:53:26.472Z,11.38
2017-12-21T06:55:53.987Z,11.12
2017-12-21T06:58:22.324Z,10.25
2017-12-21T07:00:49.834Z,10.38
2017-12-21T07:03:18.103Z,10.15
2017-12-21T07:05:46.445Z,9.82
2017-12-21T07:08:18.154Z,10.13
2017-12-21T07:10:45.685Z,9.70
2017-12-21T07:13:13.187Z,10.80
2017-12-21T07:15:40.697Z,9.52
2017-12-21T07:18:08.243Z,8.90
2017-12-21T07:20:36.587Z,10.13
2017-12-21T07:23:04.090Z,10.77
2017-12-21T07:25:31.606Z,9.90
2017-12-21T07:27:59.102Z,9.82
2017-12-21T07:30:26.888Z,9.43
2017-12-21T07:32:55.153Z,9.13
2017-12-21T07:35:22.671Z,8.15
2017-12-21T07:37:50.403Z,8.90
2017-12-21T07:40:18.685Z,8.85
2017-12-21T07:42:46.951Z,8.20
2017-12-21T07:45:15.233Z,8.13
2017-12-21T07:47:43.492Z,9.73
2017-12-21T07:50:11.009Z,7.70
2017-12-21T07:52:38.507Z,7.80
2017-12-21T07:55:06.007Z,7.32
2017-12-21T07:57:33.538Z,8.57
2017-12-21T08:00:01.118Z,7.25
2017-12-21T08:02:28.633Z,7.62
2017-12-21T08:04:56.143Z,7.82
2017-12-21T08:07:23.727Z,7.65
2017-12-21T08:09:51.234Z,7.70
2017-12-21T08:12:19.516Z,7.35
2017-12-21T08:14:47.786Z,7.22
2017-12-21T08:17:15.315Z,7.47
2017-12-21T08:19:42.805Z,7.15
2017-12-21T08:22:11.090Z,6.28
2017-12-21T08:24:38.602Z,6.35
2017-12-21T08:27:06.110Z,5.82
2017-12-21T08:29:33.614Z,5.95
2017-12-21T08:32:01.137Z,5.72
2017-12-21T08:34:29.398Z,4.78
2017-12-21T08:36:57.702Z,4.82
2017-12-21T08:39:25.954Z,5.53
2017-12-21T08:41:54.231Z,5.07
2017-12-21T08:44:22.513Z,4.97
2017-12-21T08:46:50.790Z,5.32
2017-12-21T08:49:19.051Z,4.82
2017-12-21T08:51:46.584Z,4.90
2017-12-21T08:54:14.135Z,5.15
2017-12-21T08:56:41.674Z,4.65
2017-12-21T08:59:09.254Z,4.05
2017-12-21T09:01:36.757Z,4.53
2017-12-21T09:04:04.279Z,3.80
2017-12-21T09:06:31.775Z,4.43
2017-12-21T09:09:00.057Z,4.07
2017-12-21T09:11:28.324Z,4.70
2017-12-21T09:13:55.836Z,3.80
2017-12-21T09:16:23.335Z,4.00
2017-12-21T09:18:50.875Z,3.70
2017-12-21T09:21:18.376Z,3.83
2017-12-21T09:23:45.963Z,4.20
2017-12-21T09:26:13.454Z,3.53
2017-12-21T09:28:40.975Z,3.40
2017-12-21T09:31:08.483Z,3.83
2017-12-21T09:33:36.019Z,3.40
2017-12-21T09:36:03.527Z,3.42
2017-12-21T09:38:31.806Z,3.50
2017-12-21T09:41:00.070Z,3.90
2017-12-21T09:43:27.583Z,3.42
2017-12-21T09:45:55.071Z,3.00
2017-12-21T09:48:22.594Z,3.20
2017-12-21T09:50:50.090Z,3.37
2017-12-21T09:53:18.371Z,3.28
2017-12-21T09:55:45.889Z,3.55
2017-12-21T09:58:13.386Z,2.87
2017-12-21T10:00:40.919Z,3.45
2017-12-21T10:03:08.431Z,3.50
2017-12-21T10:05:36.715Z,3.60
2017-12-21T10:08:04.988Z,3.12
2017-12-21T10:10:33.265Z,3.08
2017-12-21T10:13:02.327Z,3.35
2017-12-21T10:15:29.843Z,2.97
2017-12-21T10:17:57.356Z,3.30
2017-12-21T10:20:24.875Z,3.28
2017-12-21T10:22:52.371Z,3.25
2017-12-21T10:25:19.886Z,3.40
2017-12-21T10:27:47.429Z,3.60
2017-12-21T10:30:14.951Z,2.22
2017-12-21T10:32:42.453Z,3.10
2017-12-21T10:35:09.966Z,2.65
2017-12-21T10:37:37.504Z,2.70
2017-12-21T10:40:05.056Z,2.83
2017-12-21T10:42:32.532Z,2.83
2017-12-21T10:45:00.054Z,3.47
2017-12-21T10:47:27.554Z,3.05
2017-12-21T10:49:55.079Z,2.37
2017-12-21T10:52:22.678Z,3.05
2017-12-21T10:54:50.970Z,3.58
2017-12-21T10:57:19.254Z,2.60
2017-12-21T10:59:47.528Z,2.92
2017-12-21T11:02:16.054Z,2.83
2017-12-21T11:04:43.546Z,3.10
2017-12-21T11:07:11.061Z,2.47
2017-12-21T11:09:38.662Z,2.47
2017-12-21T11:12:06.172Z,2.10
2017-12-21T11:14:33.665Z,2.55
2017-12-21T11:17:01.174Z,2.83
2017-12-21T11:19:29.453Z,2.10
2017-12-21T11:21:57.778Z,2.40
2017-12-21T11:24:25.290Z,2.25
2017-12-21T11:26:52.818Z,2.15
2017-12-21T11:29:20.315Z,2.53
2017-12-21T11:31:47.830Z,3.00
2017-12-21T11:34:15.323Z,2.00
2017-12-21T11:36:43.611Z,1.95
2017-12-21T11:39:11.105Z,2.20
2017-12-21T11:41:38.614Z,2.20
2017-12-21T11:44:06.882Z,2.05
2017-12-21T11:46:34.390Z,2.30
2017-12-21T11:49:01.890Z,2.10
2017-12-21T11:51:29.383Z,2.40
2017-12-21T11:53:56.911Z,2.20
2017-12-21T11:56:24.414Z,1.87
2017-12-21T11:58:52.139Z,1.77
2017-12-21T12:01:20.417Z,2.47
2017-12-21T12:03:47.942Z,2.55
2017-12-21T12:06:15.433Z,2.65
2017-12-21T12:08:43.711Z,2.42
2017-12-21T12:11:11.970Z,2.65
2017-12-21T12:13:39.474Z,2.65
2017-12-21T12:16:06.976Z,2.28
2017-12-21T12:18:35.283Z,2.60
2017-12-21T12:21:03.551Z,2.58
2017-12-21T12:23:31.067Z,1.90
2017-12-21T12:25:58.574Z,1.85
2017-12-21T12:28:26.279Z,2.65
2017-12-21T12:30:53.825Z,3.15
2017-12-21T12:33:21.375Z,2.42
2017-12-21T12:35:49.642Z,3.00
2017-12-21T12:38:17.171Z,2.00
2017-12-21T12:40:44.672Z,2.42
2017-12-21T12:43:12.945Z,2.30
2017-12-21T12:45:41.219Z,2.62
2017-12-21T12:48:09.498Z,2.20
2017-12-21T12:50:37.766Z,2.33
2017-12-21T12:53:06.041Z,2.15
2017-12-21T12:55:34.370Z,2.35
2017-12-21T12:58:01.891Z,2.37
2017-12-21T13:00:30.170Z,2.28
2017-12-21T13:02:58.444Z,2.37
2017-12-21T13:05:26.746Z,2.80
2017-12-21T13:07:54.251Z,1.85
2017-12-21T13:10:21.772Z,2.22
2017-12-21T13:12:49.270Z,2.45
2017-12-21T13:15:16.791Z,2.42
2017-12-21T13:17:44.294Z,2.50
2017-12-21T13:20:11.802Z,2.62
2017-12-21T13:22:39.306Z,2.50
2017-12-21T13:25:06.861Z,2.35
2017-12-21T13:27:34.364Z,2.10
2017-12-21T13:30:01.862Z,2.60
2017-12-21T13:32:29.379Z,2.40
2017-12-21T13:34:56.869Z,2.70
2017-12-21T13:37:24.382Z,2.70
2017-12-21T13:39:52.641Z,3.45
2017-12-21T13:42:20.931Z,3.30
2017-12-21T13:44:48.438Z,3.20
2017-12-21T13:47:16.408Z,2.70
2017-12-21T13:49:43.905Z,3.55
2017-12-21T13:52:11.470Z,3.67
2017-12-21T13:54:38.982Z,3.72
2017-12-21T13:57:06.498Z,3.10
2017-12-21T13:59:34.762Z,3.22
2017-12-21T14:02:02.286Z,2.55
2017-12-21T14:04:29.782Z,3.65
2017-12-21T14:06:57.280Z,3.30
2017-12-21T14:09:24.796Z,3.33
2017-12-21T14:11:52.302Z,3.58
2017-12-21T14:14:19.829Z,3.40
2017-12-21T14:16:48.092Z,2.85
2017-12-21T14:19:15.598Z,3.42
2017-12-21T14:21:43.094Z,3.58
2017-12-21T14:24:10.618Z,3.75
2017-12-21T14:26:38.110Z,3.58
2017-12-21T14:29:05.629Z,4.25
2017-12-21T14:31:33.154Z,3.70
2017-12-21T14:34:00.663Z,3.70
2017-12-21T14:36:28.159Z,3.58
2017-12-21T14:38:55.666Z,4.30
2017-12-21T14:41:23.162Z,4.05
2017-12-21T14:43:51.443Z,5.22
2017-12-21T14:46:18.944Z,5.12
2017-12-21T14:48:46.467Z,4.95
2017-12-21T14:51:13.958Z,4.32
2017-12-21T14:53:42.247Z,5.53
2017-12-21T14:56:09.751Z,5.32
2017-12-21T14:58:37.287Z,4.60
2017-12-21T15:01:04.798Z,4.85
2017-12-21T15:03:33.084Z,5.43
2017-12-21T15:06:01.351Z,5.30
2017-12-21T15:08:29.620Z,5.60
2017-12-21T15:10:57.134Z,5.20
2017-12-21T15:13:24.635Z,6.22
2017-12-21T15:15:52.163Z,5.80
2017-12-21T15:18:19.662Z,4.85
2017-12-21T15:20:47.942Z,4.20
2017-12-21T15:23:15.443Z,5.45
2017-12-21T15:25:42.964Z,5.37
2017-12-21T15:28:11.217Z,5.65
2017-12-21T15:30:38.727Z,4.32
2017-12-21T15:33:06.222Z,4.80
2017-12-21T15:35:33.743Z,5.30
2017-12-21T15:38:01.238Z,4.68
2017-12-21T15:40:28.754Z,5.03
2017-12-21T15:42:56.250Z,5.45
2017-12-21T15:45:23.749Z,5.07
2017-12-21T15:47:52.005Z,4.53
2017-12-21T15:50:19.518Z,4.60
2017-12-21T15:52:47.011Z,4.95
2017-12-21T15:55:14.570Z,5.78
2017-12-21T15:57:42.070Z,5.25
2017-12-21T16:00:10.331Z,5.35
2017-12-21T16:02:37.846Z,4.82
2017-12-21T16:05:05.346Z,4.82
2017-12-21T16:07:32.869Z,5.32
2017-12-21T16:10:00.370Z,4.75
2017-12-21T16:12:28.647Z,4.60
2017-12-21T16:14:56.138Z,5.25
2017-12-21T16:17:23.650Z,5.57
2017-12-21T16:19:51.143Z,5.72
2017-12-21T16:22:18.651Z,5.90
2017-12-21T16:24:46.145Z,5.43
2017-12-21T16:27:13.678Z,5.05
2017-12-21T16:29:41.178Z,5.43
2017-12-21T16:32:08.690Z,5.60
2017-12-21T16:34:36.178Z,5.35
2017-12-21T16:37:04.453Z,5.43
2017-12-21T16:39:31.952Z,5.28
2017-12-21T16:41:59.472Z,5.50
2017-12-21T16:44:27.738Z,5.82
2017-12-21T16:46:55.258Z,6.78
2017-12-21T16:49:22.752Z,5.60
2017-12-21T16:51:50.252Z,5.47
2017-12-21T16:54:17.774Z,5.37
2017-12-21T16:56:45.275Z,5.55
2017-12-21T16:59:12.785Z,5.25
2017-12-21T17:01:40.278Z,5.47
2017-12-21T17:04:07.798Z,5.78
2017-12-21T17:06:35.306Z,5.93
2017-12-21T17:09:02.819Z,5.68
2017-12-21T17:11:30.319Z,5.45
2017-12-21T17:13:57.833Z,7.07
2017-12-21T17:16:25.371Z,6.50
2017-12-21T17:18:53.018Z,7.00
2017-12-21T17:21:20.530Z,5.70
2017-12-21T17:23:48.079Z,6.28
2017-12-21T17:26:15.579Z,8.15
2017-12-21T17:28:43.092Z,7.35
2017-12-21T17:31:10.606Z,6.80
2017-12-21T17:33:38.118Z,6.07
2017-12-21T17:36:05.656Z,5.45
2017-12-21T17:38:39.148Z,5.78
2017-12-21T17:41:06.671Z,6.20
2017-12-21T17:43:34.194Z,7.47
2017-12-21T17:46:01.690Z,7.10
2017-12-21T17:48:29.228Z,6.45
2017-12-21T17:50:57.556Z,5.55
2017-12-21T17:53:25.091Z,6.12
2017-12-21T17:55:52.639Z,6.12
2017-12-21T17:58:20.189Z,6.28
2017-12-21T18:00:48.590Z,5.87
2017-12-21T18:03:16.107Z,6.35
2017-12-21T18:05:43.634Z,6.12
2017-12-21T18:08:11.142Z,6.12
2017-12-21T18:10:38.651Z,5.25
2017-12-21T18:13:06.189Z,6.37
2017-12-21T18:15:33.873Z,6.15
2017-12-21T18:18:01.384Z,5.93
2017-12-21T18:20:28.900Z,6.55
2017-12-21T18:22:56.410Z,6.37
2017-12-21T18:25:24.728Z,6.50
2017-12-21T18:27:52.222Z,6.68
2017-12-21T18:30:19.776Z,6.65
2017-12-21T18:32:47.278Z,7.30
2017-12-21T18:35:14.798Z,6.53
2017-12-21T18:37:42.357Z,6.45
2017-12-21T18:40:09.917Z,7.72
2017-12-21T18:42:38.381Z,7.30
2017-12-21T18:45:05.883Z,7.57
2017-12-21T18:47:34.191Z,7.25
2017-12-21T18:50:01.716Z,7.30
2017-12-21T18:52:30.027Z,8.38
2017-12-21T18:54:57.583Z,7.65
2017-12-21T18:57:25.149Z,8.02
2017-12-21T18:59:52.690Z,7.60
2017-12-21T19:02:21.008Z,9.20
2017-12-21T19:04:48.535Z,8.35
2017-12-21T19:07:16.130Z,9.45
2017-12-21T19:09:43.671Z,9.02
2017-12-21T19:12:11.281Z,8.23
2017-12-21T19:14:38.815Z,8.52
2017-12-21T19:17:06.386Z,9.93
2017-12-21T19:19:33.917Z,9.88
2017-12-21T19:22:01.448Z,10.25
2017-12-21T19:24:28.998Z,9.55
2017-12-21T19:26:57.282Z,9.32
2017-12-21T19:29:25.546Z,10.70
2017-12-21T19:31:53.887Z,10.00
2017-12-21T19:34:21.384Z,13.95
2017-12-21T19:36:49.709Z,27.77
2017-12-21T19:39:17.289Z,18.02
2017-12-21T19:41:44.843Z,13.82
2017-12-21T19:44:12.362Z,13.75
2017-12-21T19:46:39.913Z,11.70
2017-12-21T19:49:08.275Z,12.02
2017-12-21T19:51:36.592Z,12.90
2017-12-21T19:54:04.181Z,11.60
2017-12-21T19:56:31.733Z,12.50
2017-12-21T20:01:33.121Z,13.00
2017-12-21T20:04:00.694Z,12.60
2017-12-21T20:06:28.248Z,12.30
2017-12-21T20:08:56.046Z,11.50
2017-12-21T20:11:23.589Z,11.70
2017-12-21T20:13:51.116Z,12.27
2017-12-21T20:16:18.673Z,12.75
2017-12-21T20:18:46.309Z,11.27
2017-12-21T20:21:13.964Z,12.10
2017-12-21T20:23:41.627Z,11.25
2017-12-21T20:26:10.974Z,11.43
2017-12-21T20:28:38.518Z,11.38
2017-12-21T20:31:06.201Z,11.40
2017-12-21T20:33:33.768Z,10.82
2017-12-21T20:36:01.382Z,10.73
2017-12-21T20:38:28.986Z,12.05
2017-12-21T20:40:56.575Z,10.15
2017-12-21T20:43:24.867Z,11.32
2017-12-21T20:45:52.469Z,12.05
2017-12-21T20:48:20.002Z,11.68
2017-12-21T20:50:47.594Z,10.55
2017-12-21T20:53:15.167Z,11.50
2017-12-21T20:55:42.771Z,11.45
2017-12-21T20:58:10.330Z,11.05
2017-12-21T21:00:38.730Z,11.25
2017-12-21T21:03:06.350Z,11.95
2017-12-21T21:05:34.005Z,12.25
2017-12-21T21:08:02.387Z,11.20
2017-12-21T21:10:29.978Z,11.43
2017-12-21T21:12:57.549Z,13.15
2017-12-21T21:15:25.120Z,11.45
2017-12-21T21:17:52.690Z,11.82
2017-12-21T21:20:20.279Z,12.40
2017-12-21T21:22:47.808Z,11.70
2017-12-21T21:25:15.386Z,13.80
2017-12-21T21:27:42.977Z,13.88
2017-12-21T21:30:11.256Z,12.45
2017-12-21T21:32:39.592Z,12.70
2017-12-21T21:35:07.174Z,12.55
2017-12-21T21:37:34.703Z,12.20
2017-12-21T21:40:02.259Z,12.05
2017-12-21T21:42:29.816Z,12.13
2017-12-21T21:44:57.403Z,11.65
2017-12-21T21:47:24.990Z,12.37
2017-12-21T21:49:53.322Z,11.30
2017-12-21T21:52:20.905Z,10.85
2017-12-21T21:54:48.486Z,11.12
2017-12-21T21:57:16.493Z,11.30
2017-12-21T21:59:44.050Z,10.93
2017-12-21T22:02:11.592Z,10.15
2017-12-21T22:04:39.910Z,11.00
2017-12-21T22:07:07.480Z,10.30
2017-12-21T22:09:35.033Z,11.38
2017-12-21T22:12:02.602Z,10.05
2017-12-21T22:14:30.934Z,10.65
2017-12-21T22:16:58.516Z,10.57
2017-12-21T22:19:26.055Z,10.15
2017-12-21T22:21:54.375Z,10.48
2017-12-21T22:24:21.936Z,10.73
2017-12-21T22:26:49.478Z,9.10
2017-12-21T22:29:17.041Z,9.90
2017-12-21T22:31:44.530Z,9.05
2017-12-21T22:34:12.094Z,9.40
2017-12-21T22:36:39.650Z,10.57
2017-12-21T22:39:07.210Z,9.48
2017-12-21T22:41:34.758Z,9.52
2017-12-21T22:44:02.274Z,9.30
2017-12-21T22:46:29.831Z,9.43
2017-12-21T22:48:57.389Z,9.57
2017-12-21T22:51:24.888Z,9.20
2017-12-21T22:53:52.448Z,9.75
2017-12-21T22:56:19.959Z,9.13
2017-12-21T22:58:48.289Z,9.18
2017-12-21T23:01:16.605Z,9.48
2017-12-21T23:03:44.219Z,9.13
2017-12-21T23:06:11.716Z,9.00
2017-12-21T23:08:39.270Z,8.95
2017-12-21T23:11:06.789Z,9.93
2017-12-21T23:13:34.347Z,9.75
2017-12-21T23:16:01.909Z,9.52
2017-12-21T23:18:29.444Z,9.70
2017-12-21T23:20:56.959Z,8.80
2017-12-21T23:23:24.499Z,9.40
2017-12-21T23:25:52.018Z,9.32
2017-12-21T23:28:20.290Z,8.93
2017-12-21T23:30:47.848Z,9.00
2017-12-21T23:33:15.394Z,8.20
2017-12-21T23:35:42.988Z,8.43
2017-12-21T23:38:10.497Z,8.25
2017-12-21T23:40:38.044Z,8.73
2017-12-21T23:43:05.600Z,9.00
2017-12-21T23:45:33.108Z,8.95
2017-12-21T23:48:01.383Z,8.38
2017-12-21T23:50:29.645Z,8.75
2017-12-21T23:52:57.206Z,7.70
2017-12-21T23:55:24.709Z,8.35
2017-12-21T23:57:52.269Z,8.38
